Mora RC

April 5, 2020, 9 a.m.

  • imperial
Air Temperature RH Dewpoint Wind Chill Heat Index Wind Speed Wind Direction Precipitation Solar Radiation Soil Temperature
Date Time Max Mean Mean Total Total
US/Mountain F % F F F MPH MPH MPH deg. deg. in. MJ/m^2 F
2020-04-04 09:00 30.38 78.74 24.57 27.27 30.38 3.13 4.21 2.01 71.6 74.8 0.0 0.059 47.07
2020-04-04 09:05 30.87 77.79 24.75 30.87 30.87 2.42 3.13 1.59 330.5 26.2 0.0 0.074 47.08
2020-04-04 09:10 31.17 79.02 25.43 31.17 31.17 2.59 2.95 1.52 70.1 344.4 0.0 0.073 47.12
2020-04-04 09:15 31.48 77.1 25.13 31.48 31.48 0.0 5.28 2.84 156.0 62.9 0.0 0.106 47.14
2020-04-04 09:20 31.78 75.79 25.02 31.78 31.78 2.95 4.92 3.13 39.3 118.3 0.0 0.107 47.17
2020-04-04 09:25 31.71 74.63 24.58 28.78 31.71 3.13 4.21 3.24 131.4 87.8 0.0 0.092 47.23
2020-04-04 09:30 32.83 72.24 24.87 29.17 32.83 3.85 4.38 2.59 94.6 112.4 0.0 0.164 47.26
2020-04-04 09:35 33.26 72.85 25.49 30.54 33.26 3.13 5.28 3.53 116.0 86.1 0.0 0.171 47.32
2020-04-04 09:40 33.8 72.13 25.77 31.15 33.8 3.13 3.67 2.15 116.1 89.3 0.0 0.176 47.37
2020-04-04 09:45 34.92 72.58 27.0 34.92 34.92 2.59 5.64 2.55 105.6 95.0 0.0 0.181 47.41
2020-04-04 09:50 35.28 70.83 26.75 35.28 35.28 2.42 6.53 3.98 118.2 88.5 0.0 0.187 47.48
2020-04-04 09:55 35.53 66.9 25.62 32.68 35.53 3.49 7.07 4.74 142.6 98.1 0.0 0.19 47.57
2020-04-04 10:00 35.71 71.1 27.26 32.68 35.71 3.67 7.07 4.47 39.1 81.9 0.0 0.196 47.64
2020-04-04 10:05 37.04 66.65 26.97 32.74 37.04 5.28 7.61 4.5 104.9 100.4 0.0 0.2 47.75
2020-04-04 10:10 37.42 66.17 27.16 31.85 37.42 7.25 7.25 4.72 117.7 92.7 0.0 0.203 47.82
2020-04-04 10:15 37.96 67.12 28.02 33.82 37.96 5.28 7.43 5.26 76.0 114.4 0.0 0.208 47.93
2020-04-04 10:20 38.46 65.79 28.01 35.0 38.46 4.56 7.43 4.74 117.5 72.8 0.0 0.212 48.06
2020-04-04 10:25 39.69 61.75 27.63 35.36 39.69 6.0 8.3 5.64 105.3 99.3 0.0 0.215 48.16
2020-04-04 10:30 40.41 60.93 27.99 36.71 40.41 5.28 7.61 5.17 135.1 101.0 0.0 0.221 48.31
2020-04-04 10:35 41.27 61.68 29.1 36.41 41.27 7.43 7.78 4.85 112.7 91.7 0.0 0.228 48.45
2020-04-04 10:40 41.27 59.62 28.27 38.28 41.27 4.56 7.43 6.04 82.5 91.6 0.0 0.23 48.58
2020-04-04 10:45 41.38 60.89 28.89 38.26 41.38 4.74 7.78 5.88 108.0 88.4 0.0 0.233 48.74
2020-04-04 10:50 41.5 58.73 28.13 36.59 41.5 7.61 7.96 5.64 92.1 78.0 0.0 0.238 48.9
2020-04-04 10:55 41.76 58.87 28.42 38.31 41.76 5.28 8.68 5.75 94.0 88.5 0.0 0.242 49.03
2020-04-04 11:00 42.17 58.93 28.84 38.55 42.17 5.64 8.48 5.86 91.0 81.4 0.0 0.242 49.21
2020-04-04 11:05 44.69 57.77 30.72 42.27 44.69 4.56 7.96 5.84 104.3 101.1 0.0 0.248 49.39
2020-04-04 11:10 43.95 55.21 28.91 38.98 43.95 8.86 10.09 7.14 87.8 86.9 0.0 0.253 49.55
2020-04-04 11:15 43.65 56.13 29.03 39.37 43.65 7.25 10.45 7.4 102.7 92.4 0.0 0.254 49.71
2020-04-04 11:20 43.93 55.99 29.24 39.63 43.93 7.43 9.4 7.52 96.1 94.8 0.0 0.254 49.91
2020-04-04 11:25 44.31 56.53 29.83 40.98 44.31 5.82 10.27 7.81 87.8 90.1 0.0 0.259 50.09
2020-04-04 11:30 44.8 56.32 30.19 41.45 44.8 6.0 8.86 6.33 73.9 96.3 0.0 0.268 50.29
2020-04-04 11:35 44.98 55.23 29.88 40.57 44.98 8.12 10.63 7.58 88.7 85.0 0.0 0.269 50.47
2020-04-04 11:40 46.15 52.57 29.76 41.92 46.15 8.3 10.09 7.27 94.1 95.8 0.0 0.268 50.65
2020-04-04 11:45 46.74 54.1 31.02 43.87 46.74 5.82 9.57 6.49 75.7 88.3 0.0 0.272 50.83
2020-04-04 11:50 47.12 50.92 29.87 43.41 47.12 7.61 8.48 6.11 72.0 83.8 0.0 0.273 51.03
2020-04-04 11:55 48.22 52.73 31.75 45.34 48.22 6.35 9.91 6.96 82.0 99.0 0.0 0.285 51.22
2020-04-04 12:00 47.73 50.1 30.04 45.25 47.73 5.46 9.4 6.93 86.2 81.3 0.0 0.284 51.42
2020-04-04 12:05 48.16 53.11 31.88 45.36 48.16 6.17 10.09 7.11 83.6 101.4 0.0 0.284 51.62
2020-04-04 12:10 48.7 49.8 30.79 44.89 48.7 8.68 9.91 7.54 65.0 95.7 0.0 0.29 51.82
2020-04-04 12:15 49.08 47.82 30.14 45.64 49.08 7.96 10.98 7.34 86.4 90.7 0.0 0.295 52.02
2020-04-04 12:20 49.93 49.28 31.66 49.3 49.93 3.31 9.57 6.26 82.3 82.1 0.0 0.241 52.23
2020-04-04 12:25 49.87 48.12 31.02 47.78 49.87 5.46 11.16 7.05 78.8 87.6 0.0 0.252 52.45
2020-04-04 12:30 50.97 45.59 30.69 50.97 50.97 4.92 9.04 5.73 39.2 78.5 0.0 0.198 52.65
2020-04-04 12:35 51.33 45.35 30.89 51.33 51.33 4.21 7.07 5.06 117.4 72.2 0.0 0.245 52.86
2020-04-04 12:40 52.45 41.29 29.59 52.45 52.45 8.68 9.4 6.8 117.7 97.0 0.0 0.287 53.06
2020-04-04 12:45 52.81 40.03 29.16 52.81 52.81 3.67 9.04 5.88 72.4 78.9 0.0 0.309 53.26
2020-04-04 12:50 52.56 37.43 27.29 52.56 52.56 4.56 8.12 4.74 88.4 105.7 0.0 0.14 53.46
2020-04-04 12:55 52.38 37.78 27.36 52.38 52.38 6.0 9.22 5.79 108.0 90.2 0.0 0.173 53.64
2020-04-04 13:00 51.94 34.23 24.59 51.94 51.94 3.13 7.61 4.3 21.1 104.4 0.0 0.127 53.83
2020-04-04 13:05 52.56 34.33 25.2 52.56 52.56 4.74 5.64 3.98 140.5 88.8 0.0 0.158 54.03
2020-04-04 13:10 53.42 30.27 22.95 53.42 53.42 3.31 5.46 3.51 47.1 18.3 0.0 0.167 54.19
2020-04-04 13:15 52.86 30.57 22.7 52.86 52.86 2.77 4.03 2.77 303.4 57.1 0.0 0.103 54.36
2020-04-04 13:20 54.77 27.6 21.93 54.77 54.77 3.31 5.1 3.22 25.5 342.8 0.0 0.317 54.5
2020-04-04 13:25 55.08 20.17 14.88 55.08 55.08 8.68 8.68 4.45 313.2 2.0 0.0 0.201 54.64
2020-04-04 13:30 55.2 21.94 16.92 55.2 55.2 2.24 9.04 6.29 307.5 329.9 0.0 0.267 54.77
2020-04-04 13:35 55.74 21.56 16.97 55.74 55.74 1.88 5.82 2.91 126.5 293.2 0.0 0.16 54.9
2020-04-04 13:40 56.53 17.84 13.28 56.53 56.53 6.89 9.04 4.74 254.7 241.5 0.0 0.259 55.0
2020-04-04 13:45 56.61 15.18 9.7 56.61 56.61 10.27 11.88 7.7 283.5 304.1 0.0 0.299 55.11
2020-04-04 13:50 57.2 16.14 11.56 57.2 57.2 4.74 10.63 6.46 161.2 295.7 0.0 0.291 55.24
2020-04-04 13:55 57.33 17.57 13.59 57.33 57.33 5.1 7.78 5.06 213.6 251.7 0.0 0.288 55.36
2020-04-04 14:00 57.69 14.7 9.85 57.69 57.69 7.78 13.85 9.08 299.3 216.8 0.0 0.285 55.47
2020-04-04 14:05 57.38 15.69 11.07 57.38 57.38 6.17 12.24 7.67 203.7 264.0 0.0 0.287 55.58
2020-04-04 14:10 58.3 17.23 13.94 58.3 58.3 6.0 14.56 7.31 252.4 227.3 0.0 0.289 55.71
2020-04-04 14:15 58.3 14.98 10.77 58.3 58.3 7.61 11.34 7.18 245.3 269.4 0.0 0.284 55.83
2020-04-04 14:20 57.76 17.16 13.4 57.76 57.76 7.07 12.95 7.67 268.1 264.1 0.0 0.255 55.96
2020-04-04 14:25 57.63 16.17 11.95 57.63 57.63 7.61 11.34 8.75 169.8 236.3 0.0 0.276 56.1
2020-04-04 14:30 58.48 16.58 13.21 58.48 58.48 5.64 11.7 7.67 306.4 247.8 0.0 0.278 56.23
2020-04-04 14:35 58.42 17.09 13.85 58.42 58.42 5.1 8.86 6.17 205.8 253.3 0.0 0.28 56.35
2020-04-04 14:40 57.99 15.55 11.36 57.99 57.99 6.17 12.24 8.3 183.3 206.8 0.0 0.263 56.52
2020-04-04 14:45 58.96 17.63 15.01 58.96 58.96 5.28 14.92 7.96 235.3 206.6 0.0 0.284 56.64
2020-04-04 14:50 58.66 18.56 15.94 58.66 58.66 11.16 11.16 7.81 291.3 247.5 0.0 0.26 56.79
2020-04-04 14:55 57.56 16.44 12.27 57.56 57.56 4.03 12.42 5.06 268.6 248.6 0.0 0.227 56.95
2020-04-04 15:00 56.64 18.32 13.98 56.64 56.64 7.78 13.67 7.92 238.2 207.5 0.0 0.166 57.07
2020-04-04 15:05 56.7 18.32 14.02 56.7 56.7 7.25 9.22 6.15 270.6 233.3 0.0 0.108 57.24
2020-04-04 15:10 57.49 19.13 15.67 57.49 57.49 7.43 8.68 5.08 294.9 279.4 0.0 0.201 57.36
2020-04-04 15:15 59.22 15.86 12.8 59.22 59.22 8.12 11.52 6.58 311.2 273.1 0.0 0.258 57.51
2020-04-04 15:20 57.67 16.99 13.1 57.67 57.67 4.92 12.95 7.36 252.8 290.2 0.0 0.151 57.63
2020-04-04 15:25 56.14 18.42 13.69 56.14 56.14 6.0 10.27 6.13 205.9 221.7 0.0 0.069 57.7
2020-04-04 15:30 57.61 17.53 13.77 57.61 57.61 6.71 13.49 7.27 209.4 215.4 0.0 0.211 57.83
2020-04-04 15:35 56.57 17.16 12.43 56.57 56.57 7.25 10.27 6.42 186.1 216.5 0.0 0.137 57.9
2020-04-04 15:40 55.78 19.99 15.26 55.78 55.78 5.64 11.52 7.2 199.3 206.1 0.0 0.085 57.97
2020-04-04 15:45 55.6 19.37 14.39 55.6 55.6 10.63 14.03 8.46 270.8 244.5 0.0 0.078 58.06
2020-04-04 15:50 56.39 18.35 13.81 56.39 56.39 5.28 15.28 8.17 257.5 262.9 0.0 0.162 58.1
2020-04-04 15:55 57.25 18.32 14.48 57.25 57.25 8.48 9.91 6.15 201.9 214.9 0.0 0.124 58.15
2020-04-04 16:00 56.59 21.05 17.13 56.59 56.59 3.13 12.24 6.29 247.5 208.6 0.0 0.089 58.17
2020-04-04 16:05 56.52 19.14 14.87 56.52 56.52 8.68 9.4 6.76 224.0 247.8 0.0 0.094 58.19
2020-04-04 16:10 57.38 19.34 15.83 57.38 57.38 2.95 9.73 5.88 225.0 233.7 0.0 0.174 58.19
2020-04-04 16:15 57.56 18.56 15.03 57.56 57.56 11.16 15.46 7.25 175.9 234.9 0.0 0.169 58.19
2020-04-04 16:20 57.07 19.99 16.34 57.07 57.07 6.53 14.74 9.93 284.0 266.8 0.0 0.135 58.19
2020-04-04 16:25 56.1 20.54 16.15 56.1 56.1 5.64 9.91 6.85 272.4 284.1 0.0 0.074 58.19
2020-04-04 16:30 55.6 20.64 15.84 55.6 55.6 7.78 11.52 6.82 254.1 281.1 0.0 0.068 58.17
2020-04-04 16:35 55.11 20.47 15.25 55.11 55.11 6.0 14.38 7.65 198.7 240.4 0.0 0.051 58.17
2020-04-04 16:40 54.68 21.18 15.67 54.68 54.68 2.95 16.89 9.08 241.0 213.5 0.0 0.044 58.17
2020-04-04 16:45 54.81 21.25 15.85 54.81 54.81 7.25 9.4 6.51 333.1 246.4 0.0 0.052 58.15
2020-04-04 16:50 54.93 21.05 15.74 54.93 54.93 3.85 9.22 6.08 147.8 255.1 0.0 0.056 58.1
2020-04-04 16:55 55.24 22.14 17.16 55.24 55.24 3.67 9.57 5.79 234.5 222.8 0.0 0.063 58.08
2020-04-04 17:00 55.36 21.15 16.21 55.36 55.36 7.43 7.78 4.38 210.8 224.8 0.0 0.06 58.05
2020-04-04 17:05 54.82 21.77 16.42 54.82 54.82 5.64 10.09 6.62 282.3 253.6 0.0 0.044 57.99
2020-04-04 17:10 54.45 22.21 16.57 54.45 54.45 11.52 13.85 8.3 279.5 243.7 0.0 0.038 57.96
2020-04-04 17:15 54.14 22.35 16.46 54.14 54.14 6.89 9.22 6.29 187.5 248.7 0.0 0.038 57.88
2020-04-04 17:20 54.09 24.19 18.24 54.09 54.09 3.85 8.48 5.41 212.6 211.1 0.0 0.042 57.85
2020-04-04 17:25 54.52 22.35 16.77 54.52 54.52 6.35 7.78 5.32 237.5 250.8 0.0 0.044 57.78
2020-04-04 17:30 55.58 21.19 16.43 55.58 55.58 6.89 9.22 5.5 276.6 256.4 0.0 0.094 57.7
2020-04-04 17:35 55.08 23.58 18.49 55.08 55.08 4.03 7.25 4.54 277.9 281.3 0.0 0.035 57.65
2020-04-04 17:40 54.54 22.97 17.42 54.54 54.54 4.03 8.48 5.95 283.9 286.3 0.0 0.035 57.58
2020-04-04 17:45 55.2 22.97 17.99 55.2 55.2 4.38 6.89 3.98 213.1 250.9 0.0 0.048 57.49
2020-04-04 17:50 55.02 20.68 15.41 55.02 55.02 7.96 9.22 5.68 194.4 213.6 0.0 0.033 57.43
2020-04-04 17:55 54.54 22.9 17.35 54.54 54.54 5.46 11.7 7.58 306.9 248.5 0.0 0.02 57.36
2020-04-04 18:00 54.34 22.52 16.8 54.34 54.34 5.64 9.22 5.44 251.9 250.7 0.0 0.029 57.29
2020-04-04 18:05 55.58 22.45 17.77 55.58 55.58 2.42 6.89 4.3 264.3 261.2 0.0 0.074 57.22
2020-04-04 18:10 56.62 21.67 17.83 56.62 56.62 1.88 6.89 3.96 295.4 271.3 0.0 0.079 57.13
2020-04-04 18:15 57.29 20.2 16.76 57.29 57.29 4.03 5.1 3.24 293.6 260.4 0.0 0.074 57.06
2020-04-04 18:20 56.73 20.68 16.84 56.73 56.73 7.07 7.07 4.18 243.6 235.9 0.0 0.061 56.98
2020-04-04 18:25 55.89 21.16 16.66 55.89 55.89 2.95 7.25 3.94 235.6 282.5 0.0 0.031 56.91
2020-04-04 18:30 56.75 19.55 15.55 56.75 56.75 1.52 3.49 1.86 311.0 271.9 0.0 0.052 56.82
2020-04-04 18:35 57.42 20.82 17.56 57.42 57.42 1.34 2.95 1.12 232.2 204.0 0.0 0.049 56.77
2020-04-04 18:40 56.68 20.41 16.49 56.68 56.68 3.67 4.56 2.35 189.7 189.4 0.0 0.044 56.71
2020-04-04 18:45 55.81 22.08 17.58 55.81 55.81 3.67 4.92 3.36 230.4 208.4 0.0 0.038 56.64
2020-04-04 18:50 55.45 21.46 16.62 55.45 55.45 1.52 5.64 3.27 237.7 197.6 0.0 0.032 56.59
2020-04-04 18:55 55.81 22.11 17.62 55.81 55.81 1.7 1.7 1.36 207.9 219.7 0.0 0.026 56.53
2020-04-04 19:00 53.24 24.19 17.52 53.24 53.24 5.64 5.64 3.24 224.2 214.9 0.0 0.011 56.44
2020-04-04 19:05 53.24 23.68 17.03 53.24 53.24 3.67 7.96 4.05 209.6 216.7 0.0 0.006 56.37
2020-04-04 19:10 52.81 24.67 17.61 52.81 52.81 2.06 5.28 3.44 176.5 239.1 0.0 0.004 56.32
2020-04-04 19:15 51.89 25.05 17.18 51.89 51.89 2.42 4.03 2.98 214.2 214.7 0.0 0.003 56.26
2020-04-04 19:20 50.79 26.58 17.62 50.79 50.79 1.52 3.31 2.33 266.0 226.5 0.0 0.002 56.16
2020-04-04 19:25 49.19 30.58 19.5 49.19 49.19 2.59 2.59 1.3 202.0 229.4 0.0 0.0 56.08
2020-04-04 19:30 48.27 31.53 19.41 48.27 48.27 2.24 6.53 2.62 226.6 232.7 0.0 0.0 56.01
2020-04-04 19:35 46.74 33.48 19.47 46.74 46.74 1.88 3.49 2.04 189.2 242.2 0.0 0.0 55.94
2020-04-04 19:40 49.01 27.44 16.82 46.66 49.01 5.64 7.25 4.05 223.1 211.5 0.0 0.0 55.87
2020-04-04 19:45 49.89 26.32 16.62 49.41 49.89 3.13 5.46 3.89 223.3 211.4 0.0 0.0 55.76
2020-04-04 19:50 48.9 28.5 17.61 47.83 48.9 3.67 3.67 2.75 228.6 226.1 0.0 0.0 55.67
2020-04-04 19:55 47.98 31.3 18.99 46.93 47.98 3.49 4.74 2.55 291.9 247.6 0.0 0.0 55.58
2020-04-04 20:00 46.15 33.93 19.26 44.99 46.15 3.31 4.03 2.66 296.2 284.8 0.0 0.0 55.47
2020-04-04 20:05 44.06 36.46 19.09 44.06 44.06 2.59 3.85 2.35 270.2 286.3 0.0 0.0 55.36
2020-04-04 20:10 43.75 37.11 19.23 43.75 43.75 0.98 4.92 2.84 277.5 274.9 0.0 0.0 55.27
2020-04-04 20:15 43.57 38.0 19.62 41.4 43.57 4.03 4.56 3.29 305.0 292.2 0.0 0.0 55.17
2020-04-04 20:20 42.3 39.57 19.42 39.77 42.3 4.21 5.1 3.91 312.3 299.8 0.0 0.0 55.06
2020-04-04 20:25 41.81 39.81 19.12 40.05 41.81 3.31 4.21 3.22 268.6 290.2 0.0 0.0 54.93
2020-04-04 20:30 43.29 37.15 18.83 43.29 43.29 2.42 8.3 4.07 265.1 275.1 0.0 0.0 54.82
2020-04-04 20:35 43.77 36.71 18.99 43.77 43.77 2.24 4.74 2.98 229.0 258.8 0.0 0.0 54.72
2020-04-04 20:40 44.28 36.03 19.0 40.52 44.28 6.53 6.53 4.21 289.6 296.3 0.0 0.0 54.61
2020-04-04 20:45 44.08 36.06 18.84 40.28 44.08 6.53 7.25 5.88 331.3 313.7 0.0 0.0 54.5
2020-04-04 20:50 44.58 35.72 19.07 42.72 44.58 3.85 7.43 5.32 290.9 292.9 0.0 0.0 54.39
2020-04-04 20:55 42.62 40.23 20.1 40.14 42.62 4.21 7.25 5.21 290.0 282.7 0.0 0.0 54.28
2020-04-04 21:00 41.07 41.97 19.69 38.05 41.07 4.56 6.89 4.81 301.0 283.1 0.0 0.0 54.19
2020-04-04 21:05 40.96 42.62 19.96 38.07 40.96 4.38 7.25 4.94 277.4 282.6 0.0 0.0 54.09
2020-04-04 21:10 40.17 43.27 19.59 40.17 40.17 1.88 6.71 3.8 176.1 249.9 0.0 0.0 53.98
2020-04-04 21:15 40.05 43.37 19.53 40.05 40.05 1.16 4.21 2.3 236.1 192.2 0.0 0.0 53.87
2020-04-04 21:20 39.92 43.85 19.67 39.92 39.92 1.34 3.67 2.26 53.6 301.6 0.0 0.0 53.78
2020-04-04 21:25 39.79 44.06 19.67 37.75 39.79 3.31 3.67 2.44 250.9 270.3 0.0 0.0 53.69
2020-04-04 21:30 39.56 44.27 19.57 36.93 39.56 3.85 5.1 3.15 282.6 256.4 0.0 0.0 53.58
2020-04-04 21:35 39.25 45.46 19.91 39.25 39.25 1.16 4.38 2.98 167.3 268.5 0.0 0.0 53.49
2020-04-04 21:40 41.29 46.49 22.3 38.76 41.29 4.03 8.68 4.18 351.5 294.6 0.0 0.0 53.4
2020-04-04 21:45 44.17 46.63 25.02 41.03 44.17 5.46 9.73 5.21 181.4 171.3 0.0 0.0 53.31
2020-04-04 21:50 45.34 45.29 25.38 40.54 45.34 9.22 11.34 7.83 166.0 174.1 0.0 0.0 53.2
2020-04-04 21:55 45.28 45.94 25.68 42.13 45.28 5.82 9.73 6.78 192.1 180.6 0.0 0.0 53.13
2020-04-04 22:00 45.21 46.15 25.72 43.01 45.21 4.38 9.91 6.29 212.3 193.0 0.0 0.0 53.02
2020-04-04 22:05 41.65 43.55 21.09 39.34 41.65 3.85 9.04 5.59 325.9 256.6 0.0 0.0 52.93
2020-04-04 22:10 39.69 46.45 20.81 36.43 39.69 4.56 5.82 3.76 286.3 308.8 0.0 0.0 52.86
2020-04-04 22:15 38.44 48.06 20.48 36.42 38.44 3.13 6.53 4.16 237.4 261.3 0.0 0.0 52.77
2020-04-04 22:20 36.86 51.47 20.62 36.86 36.86 2.24 3.31 2.39 239.7 211.3 0.0 0.0 52.7
2020-04-04 22:25 35.62 53.69 20.46 33.21 35.62 3.13 4.03 3.15 236.2 229.0 0.0 0.0 52.61
2020-04-04 22:30 35.26 54.86 20.63 31.1 35.26 4.74 4.92 3.78 216.3 231.7 0.0 0.0 52.54
2020-04-04 22:35 36.12 52.77 20.53 36.12 36.12 2.95 5.28 3.36 212.0 227.6 0.0 0.0 52.47
2020-04-04 22:40 36.48 52.23 20.62 31.67 36.48 5.82 6.0 4.41 206.7 213.5 0.0 0.0 52.39
2020-04-04 22:45 36.43 53.22 21.01 33.51 36.43 3.67 6.17 4.41 225.7 221.7 0.0 0.0 52.32
2020-04-04 22:50 36.36 51.89 20.35 32.88 36.36 4.21 5.46 4.47 253.3 219.2 0.0 0.0 52.23
2020-04-04 22:55 36.36 51.82 20.32 32.08 36.36 5.1 6.17 4.54 336.8 287.6 0.0 0.0 52.16
2020-04-04 23:00 37.22 50.83 20.66 37.22 37.22 2.95 5.64 4.3 254.3 307.2 0.0 0.0 52.09
2020-04-04 23:05 37.65 49.53 20.45 37.65 37.65 1.88 7.25 4.03 257.1 280.1 0.0 0.0 52.02
2020-04-04 23:10 36.99 51.1 20.57 33.96 36.99 3.85 4.74 3.4 280.4 216.8 0.0 0.0 51.96
2020-04-04 23:15 35.76 54.04 20.75 32.55 35.76 3.85 6.0 4.68 215.4 256.4 0.0 0.0 51.91
2020-04-04 23:20 35.46 54.69 20.75 31.02 35.46 5.1 6.17 4.41 241.7 252.0 0.0 0.0 51.84
2020-04-04 23:25 35.76 53.5 20.51 30.31 35.76 6.53 7.78 4.43 197.3 250.4 0.0 0.0 51.78
2020-04-04 23:30 36.37 52.89 20.81 32.25 36.37 4.92 7.07 4.61 269.7 252.2 0.0 0.0 51.73
2020-04-04 23:35 36.14 53.43 20.84 32.8 36.14 4.03 6.35 4.63 287.7 251.8 0.0 0.0 51.66
2020-04-04 23:40 36.01 54.05 20.99 30.73 36.01 6.35 6.71 4.3 254.0 246.1 0.0 0.0 51.58
2020-04-04 23:45 35.96 53.98 20.91 35.96 35.96 2.77 4.92 3.71 267.7 262.7 0.0 0.0 51.53
2020-04-04 23:50 36.27 53.68 21.06 32.95 36.27 4.03 6.53 4.23 272.0 289.7 0.0 0.0 51.48
2020-04-04 23:55 36.21 54.4 21.33 32.89 36.21 4.03 5.64 4.18 295.4 284.6 0.0 0.0 51.4
2020-04-05 00:00 36.7 54.02 21.62 33.45 36.7 4.03 6.35 4.25 313.4 300.4 0.0 0.0 51.33
2020-04-05 00:05 36.95 54.54 22.08 33.74 36.95 4.03 4.92 3.89 276.8 286.1 0.0 0.0 51.31
2020-04-05 00:10 37.08 53.96 21.94 33.71 37.08 4.21 4.56 3.11 245.7 271.0 0.0 0.0 51.24
2020-04-05 00:15 35.28 57.24 21.65 31.45 35.28 4.38 4.56 2.66 248.9 265.6 0.0 0.0 51.15
2020-04-05 00:20 34.05 59.22 21.31 34.05 34.05 2.42 4.74 3.44 222.0 240.8 0.0 0.0 51.1
2020-04-05 00:25 33.49 60.31 21.21 33.49 33.49 2.59 4.03 2.26 293.6 255.9 0.0 0.0 51.04
2020-04-05 00:30 33.26 60.14 20.92 33.26 33.26 2.06 4.03 2.98 270.8 282.0 0.0 0.0 50.95
2020-04-05 00:35 32.7 61.51 20.93 32.7 32.7 2.42 2.59 1.66 209.7 255.4 0.0 0.0 50.9
2020-04-05 00:40 32.45 62.26 20.97 29.62 32.45 3.13 4.03 2.75 259.9 258.3 0.0 0.0 50.83
2020-04-05 00:45 32.27 62.09 20.74 32.27 32.27 2.59 3.49 2.48 234.3 280.1 0.0 0.0 50.76
2020-04-05 00:50 32.45 62.26 20.97 32.45 32.45 2.77 3.49 2.59 280.9 286.5 0.0 0.0 50.68
2020-04-05 00:55 32.4 62.29 20.93 32.4 32.4 0.0 3.13 1.86 220.7 238.6 0.0 0.0 50.63
2020-04-05 01:00 30.87 65.17 20.54 30.87 30.87 2.77 3.31 2.39 263.6 244.1 0.0 0.0 50.56
2020-04-05 01:05 30.43 65.51 20.25 30.43 30.43 2.24 4.21 2.44 241.4 257.1 0.0 0.0 50.49
2020-04-05 01:10 29.57 67.46 20.12 29.57 29.57 2.06 3.85 2.84 264.3 259.7 0.0 0.0 50.41
2020-04-05 01:15 28.65 70.4 20.24 25.3 28.65 3.13 4.74 3.4 267.4 266.0 0.0 0.0 50.34
2020-04-05 01:20 28.35 72.32 20.58 24.7 28.35 3.31 3.67 2.42 221.4 229.8 0.0 0.0 50.27
2020-04-05 01:25 28.4 71.57 20.38 28.4 28.4 2.77 4.56 3.29 241.7 221.5 0.0 0.0 50.2
2020-04-05 01:30 29.03 70.88 20.76 25.48 29.03 3.31 4.56 3.0 253.4 236.7 0.0 0.0 50.13
2020-04-05 01:35 29.03 70.41 20.61 29.03 29.03 1.88 4.38 2.46 245.0 246.6 0.0 0.0 50.05
2020-04-05 01:40 29.16 70.69 20.82 29.16 29.16 2.59 4.74 2.98 223.6 247.4 0.0 0.0 50.0
2020-04-05 01:45 29.03 71.44 20.95 25.48 29.03 3.31 3.85 2.73 236.7 226.5 0.0 0.0 49.93
2020-04-05 01:50 29.77 70.14 21.23 25.44 29.77 4.03 8.12 4.3 248.9 236.4 0.0 0.0 49.86
2020-04-05 01:55 30.76 67.48 21.26 26.79 30.76 3.85 6.89 4.05 304.9 282.1 0.0 0.0 49.78
2020-04-05 02:00 31.37 65.87 21.28 31.37 31.37 2.59 6.0 3.71 274.0 280.4 0.0 0.0 49.73
2020-04-05 02:05 31.24 65.9 21.17 31.24 31.24 1.52 5.28 3.74 263.9 265.1 0.0 0.0 49.66
2020-04-05 02:10 30.88 66.76 21.13 30.88 30.88 2.59 7.07 4.21 220.6 257.1 0.0 0.0 49.59
2020-04-05 02:15 30.38 67.75 20.99 26.14 30.38 4.03 7.96 5.03 264.6 266.7 0.0 0.0 49.51
2020-04-05 02:20 30.45 67.51 20.98 26.65 30.45 3.67 6.53 4.56 277.0 286.4 0.0 0.0 49.46
2020-04-05 02:25 30.63 67.13 21.02 25.34 30.63 5.1 7.07 4.65 304.3 293.9 0.0 0.0 49.41
2020-04-05 02:30 30.45 67.54 20.99 24.81 30.45 5.46 5.46 3.98 261.2 283.9 0.0 0.0 49.33
2020-04-05 02:35 30.88 66.52 21.04 25.32 30.88 5.46 6.35 4.92 303.1 288.7 0.0 0.0 49.26
2020-04-05 02:40 30.63 67.07 21.0 27.08 30.63 3.49 6.71 4.68 277.1 293.5 0.0 0.0 49.23
2020-04-05 02:45 29.71 68.36 20.57 26.26 29.71 3.31 5.28 3.62 320.3 286.3 0.0 0.0 49.15
2020-04-05 02:50 28.9 71.03 20.69 22.67 28.9 5.82 6.53 4.74 291.8 269.7 0.0 0.0 49.08
2020-04-05 02:55 29.59 69.25 20.75 24.83 29.59 4.38 7.96 5.08 292.3 278.0 0.0 0.0 49.05
2020-04-05 03:00 29.41 69.66 20.72 25.68 29.41 3.49 5.28 3.74 257.6 271.4 0.0 0.0 48.97
2020-04-05 03:05 29.03 70.83 20.75 24.18 29.03 4.38 5.46 4.32 201.4 260.2 0.0 0.0 48.94
2020-04-05 03:10 29.1 70.83 20.82 24.88 29.1 3.85 5.64 3.4 225.7 238.4 0.0 0.0 48.87
2020-04-05 03:15 28.47 71.95 20.58 28.47 28.47 2.24 4.21 2.53 323.2 249.3 0.0 0.0 48.81
2020-04-05 03:20 28.06 73.08 20.55 23.46 28.06 4.03 4.56 2.91 220.4 263.9 0.0 0.0 48.76
2020-04-05 03:25 28.06 72.6 20.39 24.63 28.06 3.13 4.38 3.04 311.5 255.5 0.0 0.0 48.69
2020-04-05 03:30 28.42 72.06 20.56 28.42 28.42 2.59 5.28 3.71 248.7 278.4 0.0 0.0 48.65
2020-04-05 03:35 28.72 72.53 21.01 24.44 28.72 3.85 3.85 2.84 287.2 280.1 0.0 0.0 48.58
2020-04-05 03:40 29.03 70.69 20.7 24.18 29.03 4.38 5.64 4.38 276.5 280.1 0.0 0.0 48.52
2020-04-05 03:45 28.49 72.06 20.63 23.36 28.49 4.56 5.46 4.47 252.6 271.3 0.0 0.0 48.47
2020-04-05 03:50 28.8 71.51 20.75 24.31 28.8 4.03 7.25 4.74 274.0 294.6 0.0 0.0 48.43
2020-04-05 03:55 29.53 70.01 20.96 22.98 29.53 6.35 7.61 5.59 283.3 283.3 0.0 0.0 48.36
2020-04-05 04:00 29.71 69.4 20.92 26.51 29.71 3.13 7.61 5.28 308.2 284.4 0.0 0.0 48.33
2020-04-05 04:05 29.35 69.47 20.6 25.85 29.35 3.31 6.89 4.97 179.0 261.8 0.0 0.0 48.25
2020-04-05 04:10 27.93 73.19 20.46 22.91 27.93 4.38 5.82 4.05 251.0 255.2 0.0 0.0 48.22
2020-04-05 04:15 28.98 70.87 20.71 22.17 28.98 6.53 7.07 5.37 271.4 289.6 0.0 0.0 48.15
2020-04-05 04:20 29.05 71.04 20.83 29.05 29.05 0.81 6.89 3.65 3.1 266.2 0.0 0.0 48.11
2020-04-05 04:25 29.35 69.6 20.65 29.35 29.35 2.59 4.56 2.68 1.5 347.2 0.0 0.0 48.06
2020-04-05 04:30 29.41 69.12 20.53 29.41 29.41 1.52 3.85 2.04 159.6 252.2 0.0 0.0 48.0
2020-04-05 04:35 29.41 68.24 20.23 29.41 29.41 2.24 3.13 1.7 70.6 337.9 0.0 0.0 47.95
2020-04-05 04:40 28.18 74.19 21.02 28.18 28.18 0.98 2.95 1.92 143.9 32.9 0.0 0.0 47.89
2020-04-05 04:45 28.0 75.86 21.37 28.0 28.0 1.52 2.06 1.1 101.5 171.5 0.0 0.0 47.86
2020-04-05 04:50 27.75 76.61 21.36 27.75 27.75 1.16 2.06 1.41 156.1 185.9 0.0 0.0 47.8
2020-04-05 04:55 27.63 76.58 21.23 23.64 27.63 3.49 3.49 1.81 293.2 261.0 0.0 0.0 47.75
2020-04-05 05:00 28.36 74.6 21.33 28.36 28.36 0.98 4.03 2.82 79.8 353.9 0.0 0.0 47.7
2020-04-05 05:05 28.49 73.3 21.03 28.49 28.49 1.88 2.42 1.54 104.1 141.5 0.0 0.0 47.64
2020-04-05 05:10 27.82 74.33 20.72 27.82 27.82 1.7 4.21 2.51 129.0 148.4 0.0 0.0 47.59
2020-04-05 05:15 27.52 74.81 20.57 27.52 27.52 1.34 3.13 1.81 292.0 166.5 0.0 0.0 47.55
2020-04-05 05:20 27.34 74.78 20.39 27.34 27.34 0.98 1.88 1.14 24.2 355.0 0.0 0.0 47.48
2020-04-05 05:25 27.39 75.4 20.64 27.39 27.39 2.24 4.38 2.24 313.0 342.8 0.0 0.0 47.46
2020-04-05 05:30 27.16 74.58 20.15 27.16 27.16 0.0 2.42 0.96 354.2 171.1 0.0 0.0 47.37
2020-04-05 05:35 26.53 76.42 20.12 26.53 26.53 1.34 5.46 3.13 122.1 230.2 0.0 0.0 47.35
2020-04-05 05:40 27.64 73.45 20.26 27.64 27.64 1.34 4.74 2.42 262.8 294.6 0.0 0.0 47.3
2020-04-05 05:45 27.95 71.36 19.88 27.95 27.95 2.77 2.77 1.39 336.7 320.1 0.0 0.0 47.25
2020-04-05 05:50 28.51 69.96 19.95 22.19 28.51 5.82 5.82 3.36 335.3 325.7 0.0 0.0 47.19
2020-04-05 05:55 30.67 61.21 18.89 30.67 30.67 1.88 5.28 2.98 124.6 307.7 0.0 0.0 47.14
2020-04-05 06:00 27.64 68.87 18.76 27.64 27.64 2.59 4.56 1.97 222.9 254.5 0.0 0.0 47.08
2020-04-05 06:05 26.53 69.17 17.79 26.53 26.53 2.42 3.85 2.8 245.7 213.9 0.0 0.0 47.03
2020-04-05 06:10 26.78 70.47 18.46 26.78 26.78 1.7 4.21 2.8 244.8 209.0 0.0 0.0 46.99
2020-04-05 06:15 28.33 66.71 18.67 28.33 28.33 0.0 4.56 2.93 46.1 254.3 0.0 0.0 46.94
2020-04-05 06:20 26.6 71.16 18.52 21.77 26.6 4.03 4.21 3.09 293.6 13.3 0.0 0.0 46.9
2020-04-05 06:25 28.76 65.79 18.76 28.76 28.76 1.88 5.82 3.42 323.9 308.5 0.0 0.0 46.83
2020-04-05 06:30 28.56 66.47 18.81 28.56 28.56 2.77 2.77 1.52 216.6 348.7 0.0 0.0 46.8
2020-04-05 06:35 27.21 68.66 18.27 27.21 27.21 1.52 3.85 1.7 239.0 214.0 0.0 0.0 46.76
2020-04-05 06:40 27.16 68.76 18.25 22.42 27.16 4.03 4.56 3.6 174.7 201.2 0.0 0.0 46.69
2020-04-05 06:45 27.9 66.44 18.16 23.71 27.9 3.67 8.48 4.5 311.2 288.0 0.0 0.001 46.65
2020-04-05 06:50 29.25 62.4 17.99 29.25 29.25 1.88 7.78 3.11 228.8 258.5 0.0 0.002 46.6
2020-04-05 06:55 30.9 57.69 17.73 26.95 30.9 3.85 8.48 4.68 3.5 298.5 0.0 0.003 46.54
2020-04-05 07:00 31.39 57.21 17.99 27.11 31.39 4.21 4.56 2.35 294.8 345.4 0.0 0.007 46.51
2020-04-05 07:05 31.15 55.94 17.25 28.14 31.15 3.13 6.53 4.43 101.4 162.4 0.0 0.008 46.45
2020-04-05 07:10 30.34 60.97 18.49 25.9 30.34 4.21 5.82 3.53 120.0 176.1 0.0 0.014 46.4
2020-04-05 07:15 30.16 61.41 18.48 30.16 30.16 2.95 4.74 2.04 2.8 149.8 0.0 0.028 46.36
2020-04-05 07:20 30.24 62.78 19.07 30.24 30.24 1.16 5.1 2.93 158.3 106.2 0.0 0.032 46.31
2020-04-05 07:25 31.03 60.28 18.87 31.03 31.03 1.7 1.7 1.07 273.9 342.4 0.0 0.036 46.27
2020-04-05 07:30 32.25 56.62 18.56 32.25 32.25 2.77 6.71 3.33 350.0 303.6 0.0 0.041 46.24
2020-04-05 07:35 33.85 51.93 18.04 33.85 33.85 2.42 3.49 2.57 290.2 351.1 0.0 0.047 46.2
2020-04-05 07:40 34.47 56.58 20.62 34.47 34.47 0.0 5.64 1.9 1.6 136.8 0.0 0.051 46.17
2020-04-05 07:45 34.7 57.43 21.19 30.78 34.7 4.38 5.46 2.95 105.2 72.7 0.0 0.056 46.13
2020-04-05 07:50 34.39 57.16 20.79 30.98 34.39 3.85 5.82 2.98 88.5 129.7 0.0 0.06 46.09
2020-04-05 07:55 34.09 55.86 19.96 31.25 34.09 3.31 4.21 3.15 99.0 103.0 0.0 0.066 46.06
2020-04-05 08:00 34.93 55.85 20.75 34.93 34.93 2.42 4.56 3.2 104.9 68.6 0.0 0.071 46.04
2020-04-05 08:05 35.85 52.46 20.14 32.66 35.85 3.85 3.85 2.62 125.0 175.8 0.0 0.076 46.04
2020-04-05 08:10 37.2 48.91 19.74 34.59 37.2 3.49 5.64 3.78 24.5 69.8 0.0 0.082 46.02
2020-04-05 08:15 38.01 48.67 20.37 38.01 38.01 2.42 4.74 2.95 21.0 327.4 0.0 0.087 46.02
2020-04-05 08:20 38.91 46.75 20.26 36.95 38.91 3.13 4.21 3.33 83.1 66.8 0.0 0.092 46.02
2020-04-05 08:25 40.39 44.12 20.24 40.39 40.39 1.7 4.03 2.13 276.2 187.2 0.0 0.098 46.02
2020-04-05 08:30 41.56 43.47 20.96 41.56 41.56 1.88 3.67 2.66 121.1 175.1 0.0 0.103 46.04
2020-04-05 08:35 42.85 40.53 20.49 42.85 42.85 1.16 4.74 2.71 130.6 139.2 0.0 0.108 46.06
2020-04-05 08:40 44.31 38.51 20.59 42.9 44.31 3.31 3.49 1.74 71.6 89.2 0.0 0.114 46.09
2020-04-05 08:45 45.54 34.27 18.95 43.97 45.54 3.67 4.74 2.68 123.3 102.2 0.0 0.12 46.15
2020-04-05 08:50 46.51 34.43 19.92 46.51 46.51 1.16 3.85 2.51 35.6 54.8 0.0 0.125 46.18
2020-04-05 08:55 48.24 32.25 19.91 48.24 48.24 1.88 2.59 1.43 100.7 69.9 0.0 0.13 46.22
2020-04-05 09:00 48.42 32.82 20.48 47.42 48.42 3.49 4.38 3.31 128.0 112.3 0.0 0.136 46.27

Data is courtesy of the NM Climate Center. DO NOT USE IN LEGAL PROCEEDINGS.